Time;durP1;ratioP1;P1;durP2;ratioP2;P2;SDS_P1;SDS_P2;PMS_P1;PMS_P2;Temp;Humidity;BMP_temperature;BMP_pressure;BME280_temperature;BME280_humidity;BME280_pressure;Samples;Min_cycle;Max_cycle;Signal;HPM_P1;HPM_P2
2022/10/19 00:01:40;;;;;;;3.57;1.10;;;11.10;99.90;10.40;100678;;;;551864;259;24145;-81
2022/10/19 00:04:08;;;;;;;6.60;1.23;;;11.10;99.90;10.40;100682;;;;533759;265;24208;-81
2022/10/19 00:06:38;;;;;;;4.33;1.20;;;11.10;99.90;10.50;100679;;;;545124;255;24163;-80
2022/10/19 00:09:15;;;;;;;4.30;1.10;;;11.20;99.90;10.50;100681;;;;544015;260;24138;-80
2022/10/19 00:11:46;;;;;;;2.60;1.00;;;11.20;99.90;10.50;100680;;;;544416;255;24143;-79
2022/10/19 00:14:12;;;;;;;3.40;1.13;;;11.20;99.90;10.50;100677;;;;533683;265;24216;-80
2022/10/19 00:16:39;;;;;;;2.13;0.93;;;11.20;99.90;10.40;100690;;;;545288;259;24194;-78
2022/10/19 00:19:07;;;;;;;5.33;1.03;;;11.10;99.90;10.40;100683;;;;544032;260;24158;-79
2022/10/19 00:21:38;;;;;;;7.70;1.27;;;11.10;99.90;10.40;100686;;;;533719;265;24195;-79
2022/10/19 00:24:07;;;;;;;5.23;1.03;;;11.10;99.90;10.40;100688;;;;552763;259;24241;-79
2022/10/19 00:26:35;;;;;;;5.40;1.20;;;11.10;99.90;10.40;100678;;;;543717;260;24218;-79
2022/10/19 00:29:01;;;;;;;3.47;0.83;;;11.20;99.90;10.50;100680;;;;551601;260;24198;-80
2022/10/19 00:31:29;;;;;;;5.60;1.37;;;11.10;99.90;10.50;100669;;;;552981;259;24229;-79
2022/10/19 00:34:00;;;;;;;2.90;1.00;;;11.20;99.90;10.60;100668;;;;536058;264;24197;-86
2022/10/19 00:36:28;;;;;;;7.80;1.33;;;11.30;99.90;10.70;100652;;;;545198;259;24138;-79
2022/10/19 00:38:55;;;;;;;1.17;0.80;;;11.30;99.90;10.70;100658;;;;544888;259;24150;-83
2022/10/19 00:41:23;;;;;;;2.40;1.00;;;11.40;99.90;10.70;100669;;;;542256;264;24195;-79
2022/10/19 00:43:57;;;;;;;5.90;0.87;;;11.40;99.90;10.70;100676;;;;545885;259;24163;-79
2022/10/19 00:46:25;;;;;;;2.43;1.00;;;11.40;99.90;10.60;100676;;;;535702;264;24186;-78
2022/10/19 00:48:53;;;;;;;4.00;1.03;;;11.30;99.90;10.50;100671;;;;535163;264;24166;-79
2022/10/19 00:51:21;;;;;;;11.70;1.80;;;11.20;99.90;10.40;100663;;;;544333;259;24173;-79
2022/10/19 00:53:49;;;;;;;5.80;0.80;;;11.10;99.90;10.50;100666;;;;552223;259;24149;-80
2022/10/19 00:56:21;;;;;;;5.50;1.10;;;11.10;99.90;10.50;100670;;;;534680;264;24176;-82
2022/10/19 00:58:45;;;;;;;5.27;1.67;;;11.20;99.90;10.50;100662;;;;542956;259;24144;-82
2022/10/19 01:01:13;;;;;;;4.13;0.87;;;11.20;99.90;10.60;100673;;;;544242;259;24153;-81
2022/10/19 01:03:41;;;;;;;2.70;0.90;;;11.30;99.90;10.60;100666;;;;533969;265;24225;-82
2022/10/19 01:06:09;;;;;;;3.20;1.00;;;11.30;99.90;10.60;100672;;;;545398;259;24221;-79
2022/10/19 01:08:37;;;;;;;2.00;1.17;;;11.30;99.90;10.60;100672;;;;544374;259;24212;-79
2022/10/19 01:11:17;;;;;;;4.30;1.30;;;11.30;99.90;10.60;100670;;;;552118;260;24138;-80
2022/10/19 01:14:02;;;;;;;2.90;1.20;;;11.30;99.90;10.70;100666;;;;533635;265;24297;-82
2022/10/19 01:16:43;;;;;;;4.97;1.20;;;11.30;99.90;10.70;100677;;;;545081;259;24205;-80
2022/10/19 01:19:44;;;;;;;2.30;0.60;;;11.30;99.90;10.60;100671;;;;535036;264;24207;-81
2022/10/19 01:22:36;;;;;;;1.33;0.70;;;11.30;99.90;10.60;100674;;;;543977;260;24155;-80
2022/10/19 01:25:32;;;;;;;0.90;0.67;;;11.20;99.90;10.50;100675;;;;543514;260;24144;-82
2022/10/19 01:28:11;;;;;;;2.93;0.50;;;11.20;99.90;10.40;100666;;;;533691;265;24232;-80
2022/10/19 01:31:09;;;;;;;1.87;0.77;;;11.10;99.90;10.30;100663;;;;544697;259;24255;-78
2022/10/19 01:33:43;;;;;;;3.63;0.73;;;11.00;99.90;10.30;100660;;;;535934;260;24192;-78
2022/10/19 01:36:41;;;;;;;1.50;0.70;;;11.00;99.90;10.30;100655;;;;543961;260;24140;-79
2022/10/19 01:39:34;;;;;;;1.00;0.90;;;10.90;99.90;10.30;100659;;;;552062;260;24155;-78
2022/10/19 01:42:25;;;;;;;3.87;1.07;;;10.90;99.90;10.20;100647;;;;525242;270;24235;-80
2022/10/19 01:45:11;;;;;;;2.37;0.80;;;10.80;99.90;10.10;100646;;;;540891;263;24262;-80
2022/10/19 01:47:44;;;;;;;0.40;0.27;;;10.70;99.90;10.00;100648;;;;554028;259;24182;-79
2022/10/19 01:50:36;;;;;;;2.00;0.70;;;10.70;99.90;9.90;100641;;;;544883;259;24149;-78
2022/10/19 01:53:04;;;;;;;3.30;0.90;;;10.60;99.90;9.90;100640;;;;536835;260;24096;-79
2022/10/19 01:55:33;;;;;;;5.00;0.90;;;10.60;99.90;9.90;100624;;;;546884;262;24224;-78
2022/10/19 01:58:04;;;;;;;4.80;0.70;;;10.60;99.90;9.80;100633;;;;539289;262;24172;-80
2022/10/19 02:00:32;;;;;;;0.70;0.37;;;10.50;99.90;9.80;100635;;;;539101;262;24175;-79
2022/10/19 02:03:00;;;;;;;3.53;0.93;;;10.50;99.90;9.80;100641;;;;539209;262;24230;-78
2022/10/19 02:05:28;;;;;;;1.90;0.70;;;10.50;99.90;9.80;100634;;;;539479;262;24187;-79
2022/10/19 02:07:56;;;;;;;2.17;0.50;;;10.50;99.90;9.90;100640;;;;539123;262;24179;-78
2022/10/19 02:10:24;;;;;;;1.90;0.43;;;10.60;99.90;10.00;100644;;;;539044;262;24191;-79
2022/10/19 02:12:51;;;;;;;3.07;0.73;;;10.70;99.90;10.10;100645;;;;538940;262;24182;-81
2022/10/19 02:15:21;;;;;;;4.83;1.00;;;10.80;99.90;10.10;100647;;;;539369;262;24175;-78
2022/10/19 02:17:48;;;;;;;2.63;0.73;;;10.80;99.90;10.10;100646;;;;539408;262;24233;-79
2022/10/19 02:20:19;;;;;;;6.00;1.50;;;10.80;99.90;10.10;100650;;;;539249;262;24211;-80
2022/10/19 02:22:44;;;;;;;2.00;0.70;;;10.70;99.90;10.10;100649;;;;534986;264;24293;-80
2022/10/19 02:25:15;;;;;;;0.67;0.67;;;10.70;99.90;10.10;100649;;;;534808;264;24211;-78
2022/10/19 02:27:42;;;;;;;5.30;0.80;;;10.70;99.90;10.10;100656;;;;544202;260;24151;-80
2022/10/19 02:30:11;;;;;;;0.97;0.80;;;10.70;99.90;10.10;100653;;;;534069;265;24250;-81
2022/10/19 02:32:39;;;;;;;1.57;0.93;;;10.70;99.90;10.10;100655;;;;545410;259;24270;-77
2022/10/19 02:35:07;;;;;;;3.43;0.87;;;10.80;99.90;10.10;100665;;;;544419;259;24156;-80
2022/10/19 02:37:39;;;;;;;8.20;1.20;;;10.80;99.90;10.20;100672;;;;542870;264;24228;-81
2022/10/19 02:40:05;;;;;;;3.43;1.17;;;10.80;99.90;10.20;100668;;;;552006;253;24164;-80
2022/10/19 02:42:42;;;;;;;2.63;0.57;;;10.90;99.90;10.10;100672;;;;562739;249;24087;-79
2022/10/19 02:45:13;;;;;;;2.23;0.90;;;10.80;99.90;10.10;100671;;;;566508;249;24093;-80
2022/10/19 02:47:47;;;;;;;2.07;0.77;;;10.80;99.90;10.20;100669;;;;566338;249;24119;-79
2022/10/19 02:50:15;;;;;;;5.20;1.07;;;10.80;99.90;10.20;100668;;;;565673;249;24118;-79
2022/10/19 02:52:43;;;;;;;2.20;0.70;;;10.80;99.90;10.10;100668;;;;575466;249;24101;-80
2022/10/19 02:55:11;;;;;;;2.13;0.77;;;10.80;99.90;10.10;100669;;;;570284;247;24162;-81
2022/10/19 02:57:39;;;;;;;1.57;1.00;;;10.80;99.90;10.10;100672;;;;570509;249;24092;-79
2022/10/19 03:00:07;;;;;;;1.93;1.07;;;10.80;99.90;10.10;100670;;;;571576;249;24083;-79
2022/10/19 03:02:36;;;;;;;1.93;0.80;;;10.80;99.90;10.10;100669;;;;568688;249;24105;-82
2022/10/19 03:05:08;;;;;;;2.30;0.70;;;10.80;99.90;10.10;100674;;;;564437;249;24125;-79
2022/10/19 03:07:32;;;;;;;0.97;0.50;;;10.70;99.90;10.10;100672;;;;569972;249;24147;-81
2022/10/19 03:10:03;;;;;;;3.10;0.80;;;10.80;99.90;10.10;100676;;;;570242;249;24119;-79
2022/10/19 03:12:28;;;;;;;1.03;0.53;;;10.70;99.90;10.10;100668;;;;575505;249;24148;-80
2022/10/19 03:14:56;;;;;;;4.70;0.93;;;10.80;99.90;10.10;100671;;;;563421;249;24144;-79
2022/10/19 03:17:25;;;;;;;5.23;1.23;;;10.80;99.90;10.10;100678;;;;563393;249;24081;-80
2022/10/19 03:19:55;;;;;;;0.90;0.67;;;10.80;99.90;10.10;100678;;;;563395;249;24100;-80
2022/10/19 03:22:22;;;;;;;3.70;0.80;;;10.80;99.90;10.10;100684;;;;563381;249;24162;-80
2022/10/19 03:24:50;;;;;;;3.67;0.70;;;10.80;99.90;10.10;100696;;;;563373;249;24087;-81
2022/10/19 03:27:20;;;;;;;0.80;0.63;;;10.80;99.90;10.10;100678;;;;563343;249;24066;-81
2022/10/19 03:29:52;;;;;;;2.57;0.70;;;10.80;99.90;10.10;100681;;;;563388;249;24090;-80
2022/10/19 03:32:17;;;;;;;0.87;0.60;;;10.80;99.90;10.10;100691;;;;566596;249;24071;-80
2022/10/19 03:34:45;;;;;;;1.80;0.40;;;10.80;99.90;10.10;100690;;;;563044;249;24083;-80
2022/10/19 03:37:14;;;;;;;3.10;0.40;;;10.70;99.90;10.10;100695;;;;563106;249;24086;-81
2022/10/19 03:39:41;;;;;;;1.13;0.73;;;10.80;99.90;10.10;100702;;;;562656;249;24115;-80
2022/10/19 03:42:09;;;;;;;4.53;0.43;;;10.80;99.90;10.00;100697;;;;562897;249;24119;-80
2022/10/19 03:44:37;;;;;;;0.77;0.50;;;10.80;99.90;10.00;100697;;;;562796;249;24098;-81
2022/10/19 03:47:05;;;;;;;0.73;0.73;;;10.70;99.90;10.00;100698;;;;562958;249;24121;-81
2022/10/19 03:49:33;;;;;;;2.43;0.50;;;10.60;99.90;9.90;100694;;;;563004;249;24110;-82
2022/10/19 03:52:01;;;;;;;0.87;0.40;;;10.60;99.90;9.90;100704;;;;575079;248;24080;-82
2022/10/19 03:54:29;;;;;;;0.10;0.10;;;10.60;99.90;9.90;100701;;;;562877;249;24117;-82
2022/10/19 03:56:57;;;;;;;0.97;0.60;;;10.50;99.90;9.80;100707;;;;563389;249;24089;-83
2022/10/19 03:59:25;;;;;;;0.40;0.40;;;10.50;99.90;9.80;100713;;;;563219;249;24083;-83
2022/10/19 04:01:53;;;;;;;0.40;0.30;;;10.40;99.90;9.80;100702;;;;563329;249;24113;-83
2022/10/19 04:04:21;;;;;;;0.77;0.67;;;10.50;99.90;9.80;100696;;;;563311;249;24070;-82
2022/10/19 04:06:52;;;;;;;0.50;0.50;;;10.50;99.90;9.70;100708;;;;563422;247;24117;-83
2022/10/19 04:09:17;;;;;;;0.93;0.40;;;10.40;99.90;9.70;100711;;;;570118;249;24114;-83
2022/10/19 04:11:44;;;;;;;1.70;0.40;;;10.40;99.90;9.60;100714;;;;576261;249;24095;-82
2022/10/19 04:14:15;;;;;;;0.57;0.47;;;10.30;99.90;9.60;100711;;;;563699;249;24190;-82
2022/10/19 04:16:40;;;;;;;1.53;0.27;;;10.30;99.90;9.50;100719;;;;567228;249;24093;-82
2022/10/19 04:19:09;;;;;;;0.37;0.30;;;10.20;99.90;9.50;100723;;;;563329;249;24106;-82
2022/10/19 04:21:40;;;;;;;0.50;0.50;;;10.20;99.90;9.50;100711;;;;575032;249;24096;-82
2022/10/19 04:24:08;;;;;;;5.10;0.60;;;10.20;99.90;9.50;100730;;;;566658;249;24094;-83
2022/10/19 04:26:42;;;;;;;3.70;0.47;;;10.20;99.90;9.50;100724;;;;574889;249;24128;-82
2022/10/19 04:29:10;;;;;;;4.97;0.88;;;10.20;99.90;9.60;100745;;;;569835;249;35189;-82
2022/10/19 04:31:37;;;;;;;0.67;0.57;;;10.20;99.90;9.50;100741;;;;565282;249;24116;-83
2022/10/19 04:34:05;;;;;;;1.53;0.77;;;10.20;99.90;9.50;100755;;;;555225;254;24145;-83
2022/10/19 04:36:34;;;;;;;0.70;0.70;;;10.20;99.90;9.50;100739;;;;562882;249;25172;-83
2022/10/19 04:39:02;;;;;;;1.40;0.50;;;10.10;99.90;9.40;100745;;;;566953;249;24097;-83
2022/10/19 04:41:33;;;;;;;3.70;0.33;;;10.10;99.90;9.30;100753;;;;563349;249;24093;-84
2022/10/19 04:43:58;;;;;;;1.10;0.57;;;10.00;99.90;9.30;100753;;;;563042;249;24112;-81
2022/10/19 04:46:26;;;;;;;2.93;0.60;;;9.90;99.90;9.20;100759;;;;575384;249;24108;-82
2022/10/19 04:48:54;;;;;;;1.10;0.57;;;9.90;99.90;9.20;100751;;;;562927;249;24090;-82
2022/10/19 04:51:25;;;;;;;1.17;0.90;;;9.90;99.90;9.10;100762;;;;563131;249;24085;-83
2022/10/19 04:53:50;;;;;;;0.70;0.63;;;9.80;99.90;9.10;100759;;;;562960;249;24086;-82
2022/10/19 04:56:24;;;;;;;1.80;0.50;;;9.80;99.90;9.00;100762;;;;563192;249;24099;-82
2022/10/19 04:58:49;;;;;;;0.53;0.53;;;9.80;99.90;9.00;100762;;;;575808;249;24128;-83
2022/10/19 05:01:19;;;;;;;1.23;0.57;;;9.70;99.90;8.90;100765;;;;562730;249;24090;-83
2022/10/19 05:03:51;;;;;;;1.37;0.67;;;9.60;99.90;8.80;100759;;;;575005;249;24094;-83
2022/10/19 05:06:16;;;;;;;0.40;0.40;;;9.40;99.90;8.70;100767;;;;562645;249;24135;-83
2022/10/19 05:08:44;;;;;;;0.40;0.40;;;9.40;99.90;8.70;100775;;;;566622;249;24158;-81
2022/10/19 05:11:12;;;;;;;0.87;0.43;;;9.40;99.90;8.70;100762;;;;562821;249;24113;-81
2022/10/19 05:13:43;;;;;;;2.27;0.87;;;9.40;99.90;8.70;100766;;;;574892;249;24117;-83
2022/10/19 05:16:10;;;;;;;0.40;0.40;;;9.40;99.90;8.60;100770;;;;569225;249;24101;-82
2022/10/19 05:18:39;;;;;;;1.23;0.40;;;9.30;99.90;8.60;100778;;;;563293;247;24091;-81
2022/10/19 05:21:10;;;;;;;1.27;0.57;;;9.30;99.90;8.60;100784;;;;566672;249;24125;-83
2022/10/19 05:23:38;;;;;;;0.50;0.50;;;9.30;99.90;8.60;100785;;;;564068;249;24085;-82
2022/10/19 05:26:12;;;;;;;0.60;0.60;;;9.30;99.90;8.60;100774;;;;564154;249;24099;-81
2022/10/19 05:28:43;;;;;;;0.53;0.53;;;9.30;99.90;8.60;100772;;;;564250;248;24110;-83
2022/10/19 05:31:09;;;;;;;3.00;0.83;;;9.30;99.90;8.60;100785;;;;575769;249;24097;-83
2022/10/19 05:33:40;;;;;;;4.20;0.47;;;9.30;99.90;8.60;100794;;;;563898;249;24094;-83
2022/10/19 05:36:24;;;;;;;0.63;0.50;;;9.30;99.90;8.70;100791;;;;564353;249;24128;-82
2022/10/19 05:38:51;;;;;;;2.43;0.93;;;9.30;99.90;8.70;100793;;;;563779;249;24125;-83
2022/10/19 05:41:22;;;;;;;0.93;0.70;;;9.40;99.90;8.70;100795;;;;565953;249;24134;-82
2022/10/19 05:43:47;;;;;;;1.90;0.83;;;9.40;99.90;8.70;100806;;;;575188;249;24125;-81
2022/10/19 05:46:18;;;;;;;0.63;0.63;;;9.40;99.90;8.70;100803;;;;566593;249;24086;-82
2022/10/19 05:48:46;;;;;;;1.87;0.77;;;9.40;99.90;8.70;100806;;;;565567;249;24090;-83
2022/10/19 05:51:14;;;;;;;3.60;1.07;;;9.40;99.90;8.70;100806;;;;565455;249;24078;-83
2022/10/19 05:53:42;;;;;;;0.90;0.90;;;9.40;99.90;8.70;100808;;;;575293;249;24102;-81
2022/10/19 05:56:10;;;;;;;2.10;0.80;;;9.40;99.90;8.70;100806;;;;562950;249;24081;-82
2022/10/19 05:58:38;;;;;;;0.77;0.77;;;9.40;99.90;8.80;100814;;;;574881;249;25134;-83
2022/10/19 06:01:08;;;;;;;5.00;0.87;;;9.50;99.90;8.80;100817;;;;563496;249;24105;-81
2022/10/19 06:03:34;;;;;;;1.97;0.73;;;9.40;99.90;8.90;100819;;;;563210;249;24136;-81
2022/10/19 06:06:02;;;;;;;0.73;0.73;;;9.50;99.90;8.90;100831;;;;563068;249;24082;-82
2022/10/19 06:08:30;;;;;;;3.50;0.70;;;9.60;99.90;8.90;100827;;;;575352;249;24090;-82
2022/10/19 06:11:14;;;;;;;1.53;0.60;;;9.60;99.90;8.90;100831;;;;566780;249;24078;-83
2022/10/19 06:13:41;;;;;;;8.17;1.00;;;9.60;99.90;8.90;100833;;;;566520;249;24158;-82
2022/10/19 06:16:09;;;;;;;3.30;0.63;;;9.60;99.90;8.80;100838;;;;565325;249;24119;-81
2022/10/19 06:18:37;;;;;;;3.13;0.80;;;9.50;99.90;8.80;100839;;;;562942;249;24091;-82
2022/10/19 06:21:05;;;;;;;2.50;0.50;;;9.50;99.90;8.80;100846;;;;568574;249;25159;-82
2022/10/19 06:23:37;;;;;;;1.27;0.67;;;9.50;99.90;8.90;100844;;;;575337;249;24101;-82
2022/10/19 06:26:02;;;;;;;1.50;0.80;;;9.50;99.90;8.90;100855;;;;562683;249;24134;-83
2022/10/19 06:28:32;;;;;;;1.80;0.63;;;9.50;99.90;8.80;100856;;;;563801;248;24151;-82
2022/10/19 06:30:58;;;;;;;1.57;0.77;;;9.50;99.90;8.70;100858;;;;566050;249;24119;-82
2022/10/19 06:33:25;;;;;;;1.23;0.80;;;9.40;99.90;8.70;100855;;;;563996;249;24131;-84
2022/10/19 06:35:53;;;;;;;2.33;0.90;;;9.30;99.90;8.60;100857;;;;563827;249;24113;-83
2022/10/19 06:38:21;;;;;;;2.00;1.00;;;9.30;99.90;8.50;100856;;;;563765;249;24117;-83
2022/10/19 06:40:50;;;;;;;2.30;0.80;;;9.20;99.90;8.50;100868;;;;563880;249;24167;-84
2022/10/19 06:43:18;;;;;;;3.40;1.13;;;9.10;99.90;8.40;100872;;;;563431;249;24111;-82
2022/10/19 06:45:46;;;;;;;0.97;0.87;;;9.10;99.90;8.40;100874;;;;563381;249;24138;-82
2022/10/19 06:48:17;;;;;;;2.63;0.87;;;9.10;99.90;8.50;100878;;;;563369;249;24074;-83
2022/10/19 06:50:42;;;;;;;2.30;0.87;;;9.10;99.90;8.60;100894;;;;563434;249;24086;-83
2022/10/19 06:53:10;;;;;;;1.23;1.23;;;9.20;99.90;8.80;100904;;;;563370;249;24114;-82
2022/10/19 06:55:39;;;;;;;3.43;1.07;;;9.60;99.90;8.90;100909;;;;563536;249;24114;-84
2022/10/19 06:58:07;;;;;;;1.53;1.00;;;9.60;99.90;9.10;100912;;;;563948;249;24085;-85
2022/10/19 07:00:35;;;;;;;1.33;1.10;;;9.90;99.90;9.40;100925;;;;563412;249;24140;-83
2022/10/19 07:03:04;;;;;;;1.67;0.90;;;10.30;99.90;9.80;100933;;;;564333;249;24093;-85
2022/10/19 07:05:32;;;;;;;3.37;1.10;;;10.30;99.90;9.60;100931;;;;564546;249;24101;-84
2022/10/19 07:08:00;;;;;;;1.80;0.73;;;10.30;99.90;9.60;100940;;;;576525;248;24068;-84
2022/10/19 07:10:28;;;;;;;1.00;0.90;;;10.30;99.90;9.80;100937;;;;563805;249;24082;-85
2022/10/19 07:12:56;;;;;;;0.60;0.60;;;10.40;99.90;9.80;100934;;;;563635;249;24137;-84
2022/10/19 07:15:24;;;;;;;1.60;0.67;;;10.50;99.90;9.80;100942;;;;567399;249;24085;-85
2022/10/19 07:17:52;;;;;;;2.27;1.17;;;10.50;99.90;9.70;100939;;;;563486;249;24155;-83
2022/10/19 07:20:24;;;;;;;1.53;1.43;;;10.50;99.90;9.60;100943;;;;568750;249;24144;-83
2022/10/19 07:22:51;;;;;;;2.97;1.70;;;10.40;99.90;9.60;100945;;;;562938;249;24090;-83
2022/10/19 07:25:19;;;;;;;0.97;0.90;;;10.40;99.90;9.50;100950;;;;563175;249;24136;-83
2022/10/19 07:27:47;;;;;;;1.90;1.60;;;10.30;99.90;10.50;100958;;;;563134;249;24128;-83
2022/10/19 07:30:15;;;;;;;5.47;2.53;;;10.90;99.90;10.60;100964;;;;563136;249;24152;-82
2022/10/19 07:32:43;;;;;;;4.13;1.80;;;11.30;99.90;11.60;100969;;;;563187;249;24086;-83
2022/10/19 07:35:11;;;;;;;1.20;1.10;;;11.90;99.90;13.80;100985;;;;563164;249;24058;-82
2022/10/19 07:37:39;;;;;;;1.90;0.93;;;13.90;99.90;15.70;100993;;;;563443;249;24097;-84
2022/10/19 07:40:11;;;;;;;2.33;0.60;;;15.90;99.90;17.10;100990;;;;563145;249;24106;-84
2022/10/19 07:42:36;;;;;;;0.97;0.53;;;17.40;99.90;17.70;100997;;;;563808;249;24120;-83
2022/10/19 07:45:03;;;;;;;1.30;0.77;;;18.40;99.90;18.50;100990;;;;564066;249;24069;-83
2022/10/19 07:47:31;;;;;;;1.77;0.73;;;19.10;99.90;19.60;100989;;;;567407;249;24073;-84
2022/10/19 07:49:58;;;;;;;0.90;0.90;;;20.00;99.90;21.00;101000;;;;563731;249;24104;-84
2022/10/19 07:52:26;;;;;;;1.10;0.90;;;21.40;99.90;21.70;100995;;;;563438;249;24122;-84
2022/10/19 07:54:55;;;;;;;1.77;0.90;;;22.20;99.90;21.90;100997;;;;563500;249;23119;-84
2022/10/19 07:57:35;;;;;;;;;;;;;;;;;;;;;
2022/10/19 07:59:53;;;;;;;2.40;1.17;;;22.90;98.50;23.10;100996;;;;565578;249;25173;-84
2022/10/19 08:02:21;;;;;;;0.60;0.60;;;23.60;96.20;24.10;100998;;;;575773;249;23103;-85
2022/10/19 08:04:49;;;;;;;1.03;0.70;;;24.60;93.90;23.40;101013;;;;563315;249;24108;-85
2022/10/19 08:07:20;;;;;;;1.57;1.10;;;24.40;91.40;21.80;100999;;;;567267;249;23150;-85
2022/10/19 08:09:46;;;;;;;1.07;0.73;;;22.30;91.70;21.00;100999;;;;565707;249;24188;-84
2022/10/19 08:12:14;;;;;;;1.03;0.90;;;22.20;91.70;20.50;101002;;;;563613;249;24096;-83
2022/10/19 08:14:42;;;;;;;1.40;0.80;;;21.60;92.60;19.60;101011;;;;564053;249;24096;-84
2022/10/19 08:17:16;;;;;;;0.70;0.50;;;20.70;93.10;18.60;101017;;;;563829;249;23144;-85
2022/10/19 08:19:42;;;;;;;1.30;1.10;;;19.80;92.90;17.40;101012;;;;563589;249;24090;-85
2022/10/19 08:22:08;;;;;;;0.60;0.60;;;18.70;94.70;16.40;101033;;;;562912;249;24094;-82
2022/10/19 08:24:39;;;;;;;1.30;0.60;;;17.70;96.60;15.50;101022;;;;562619;249;24149;-83
2022/10/19 08:27:07;;;;;;;1.77;0.80;;;16.70;98.60;14.70;101023;;;;563154;249;24122;-83
2022/10/19 08:29:35;;;;;;;0.60;0.43;;;15.80;99.90;14.20;101029;;;;562888;249;24093;-84
2022/10/19 08:32:03;;;;;;;1.23;0.50;;;15.20;99.90;13.70;101025;;;;563210;249;24138;-82
2022/10/19 08:34:32;;;;;;;0.93;0.50;;;14.60;99.90;13.40;101019;;;;566112;249;24181;-83
2022/10/19 08:37:00;;;;;;;3.80;0.70;;;13.90;99.90;13.30;101024;;;;563109;249;24132;-83
2022/10/19 08:39:30;;;;;;;1.93;1.10;;;13.90;99.90;15.10;101039;;;;575176;249;24130;-82
2022/10/19 08:42:01;;;;;;;1.73;1.00;;;15.10;99.90;17.60;101047;;;;562990;249;24112;-83
2022/10/19 08:44:58;;;;;;;0.97;0.87;;;17.40;99.90;20.10;101047;;;;575767;249;24089;-84
2022/10/19 08:48:10;;;;;;;1.07;0.57;;;20.00;99.90;22.90;101058;;;;575603;249;24079;-84
2022/10/19 08:50:37;;;;;;;0.83;0.77;;;23.00;95.70;22.90;101058;;;;563371;249;23144;-84
2022/10/19 08:53:11;;;;;;;2.03;1.47;;;23.80;87.60;22.80;101054;;;;562462;247;24157;-84
2022/10/19 08:56:12;;;;;;;2.73;1.47;;;23.70;85.70;24.00;101059;;;;577348;248;24104;-84
2022/10/19 08:59:07;;;;;;;1.23;1.20;;;24.50;84.40;24.70;101075;;;;564089;249;24088;-83
2022/10/19 09:01:54;;;;;;;0.80;0.80;;;25.70;79.00;23.60;101070;;;;564465;249;23116;-83
2022/10/19 09:04:36;;;;;;;1.10;0.97;;;25.20;74.80;22.10;101079;;;;552470;255;24164;-82
2022/10/19 09:07:23;;;;;;;1.73;0.60;;;23.90;75.40;20.40;101073;;;;566328;249;24105;-82
2022/10/19 09:09:54;;;;;;;0.90;0.90;;;22.20;76.90;18.90;101070;;;;569240;249;24109;-82
2022/10/19 09:12:32;;;;;;;1.30;1.20;;;19.40;86.10;17.90;101080;;;;575580;249;24105;-80
2022/10/19 09:15:02;;;;;;;1.57;1.00;;;19.30;86.00;17.10;101078;;;;562755;249;24094;-81
2022/10/19 09:17:34;;;;;;;1.27;0.60;;;18.30;90.00;16.20;101084;;;;567103;249;23124;-82
2022/10/19 09:19:58;;;;;;;1.10;1.00;;;17.40;90.70;15.40;101085;;;;563117;249;24136;-81
2022/10/19 09:22:26;;;;;;;0.50;0.50;;;16.40;92.80;15.30;101087;;;;575288;249;25149;-81
2022/10/19 09:25:07;;;;;;;3.23;0.40;;;16.10;94.40;15.20;101085;;;;576061;249;24100;-82
2022/10/19 09:27:34;;;;;;;0.43;0.43;;;16.00;95.00;15.10;101100;;;;566384;249;24100;-82
2022/10/19 09:30:22;;;;;;;2.63;0.80;;;16.00;96.10;14.80;101104;;;;575282;249;24100;-82
2022/10/19 09:32:50;;;;;;;1.13;1.00;;;15.60;97.40;14.60;101105;;;;563088;249;24095;-82
2022/10/19 09:35:31;;;;;;;3.30;1.20;;;15.60;97.40;14.70;101094;;;;575167;249;24130;-83
2022/10/19 09:38:03;;;;;;;1.03;0.87;;;15.70;98.00;14.90;101104;;;;567009;249;24079;-81
2022/10/19 09:40:27;;;;;;;0.73;0.60;;;15.70;97.40;15.10;101113;;;;575341;249;24101;-82
2022/10/19 09:43:01;;;;;;;0.97;0.47;;;16.00;96.70;15.20;101116;;;;575431;249;24112;-82
2022/10/19 09:45:43;;;;;;;2.07;0.90;;;16.20;95.80;14.90;101128;;;;566656;249;24144;-82
2022/10/19 09:48:26;;;;;;;0.60;0.60;;;16.00;95.30;14.60;101121;;;;576982;249;24099;-81
2022/10/19 09:51:05;;;;;;;0.57;0.23;;;15.70;95.20;14.10;101131;;;;575771;249;24088;-81
2022/10/19 09:53:31;;;;;;;0.80;0.67;;;15.30;95.10;13.60;101126;;;;561972;249;24137;-83
2022/10/19 09:55:59;;;;;;;0.53;0.40;;;14.70;95.00;13.10;101127;;;;566951;249;24085;-81
2022/10/19 09:58:29;;;;;;;2.23;0.77;;;14.40;96.50;13.80;101128;;;;575713;249;24146;-81
2022/10/19 10:00:57;;;;;;;0.40;0.40;;;14.40;96.50;14.30;101125;;;;563774;249;24143;-81
2022/10/19 10:03:30;;;;;;;0.70;0.70;;;15.00;96.10;14.30;101115;;;;563289;249;24082;-80
2022/10/19 10:06:06;;;;;;;1.93;0.70;;;15.10;95.60;14.00;101125;;;;568035;249;24123;-80
2022/10/19 10:08:36;;;;;;;1.43;0.83;;;14.90;95.50;14.00;101128;;;;567524;249;24118;-82
2022/10/19 10:11:07;;;;;;;0.60;0.30;;;14.90;95.90;14.10;101146;;;;575362;249;24127;-81
2022/10/19 10:13:39;;;;;;;0.70;0.47;;;14.90;95.90;13.80;101151;;;;567318;249;24086;-83
2022/10/19 10:16:07;;;;;;;1.43;0.50;;;14.70;95.20;13.40;101145;;;;563069;249;24139;-82
2022/10/19 10:18:36;;;;;;;0.60;0.60;;;14.10;95.90;13.20;101153;;;;563470;249;24111;-82
2022/10/19 10:21:13;;;;;;;0.53;0.40;;;13.90;96.30;13.10;101154;;;;576456;249;24101;-80
2022/10/19 10:23:42;;;;;;;4.83;0.73;;;13.60;97.40;12.80;101156;;;;575584;249;24203;-80
2022/10/19 10:26:15;;;;;;;1.30;0.40;;;13.40;98.30;12.60;101143;;;;563831;249;24116;-81
2022/10/19 10:28:46;;;;;;;0.40;0.40;;;13.30;98.30;12.40;101159;;;;563754;249;24243;-80
2022/10/19 10:31:17;;;;;;;0.50;0.50;;;13.10;99.30;12.20;101151;;;;576402;249;24085;-81
2022/10/19 10:33:42;;;;;;;0.70;0.47;;;12.90;99.90;12.00;101148;;;;567650;249;24182;-81
2022/10/19 10:36:13;;;;;;;2.40;0.57;;;12.70;99.90;11.70;101152;;;;564389;249;24141;-80
2022/10/19 10:38:48;;;;;;;1.23;0.40;;;12.50;99.90;11.70;101155;;;;567593;249;24096;-82
2022/10/19 10:41:22;;;;;;;0.97;0.70;;;12.30;99.90;11.80;101157;;;;575937;249;24092;-81
2022/10/19 10:44:05;;;;;;;2.53;0.30;;;12.40;99.90;12.10;101150;;;;567880;249;24098;-81
2022/10/19 10:46:37;;;;;;;3.40;0.63;;;12.60;99.90;12.20;101160;;;;576871;249;24136;-84
2022/10/19 10:49:04;;;;;;;0.30;0.30;;;12.80;99.90;12.20;101158;;;;563237;249;24143;-81
2022/10/19 10:51:48;;;;;;;1.60;0.60;;;12.90;99.90;12.10;101159;;;;575893;249;24088;-82
2022/10/19 10:54:31;;;;;;;1.20;0.60;;;12.80;99.90;11.90;101159;;;;575566;249;24085;-83
2022/10/19 10:57:14;;;;;;;0.37;0.37;;;12.60;99.90;11.70;101179;;;;567267;249;24085;-82
2022/10/19 11:00:02;;;;;;;1.43;0.63;;;12.50;99.90;11.50;101169;;;;576592;249;24141;-81
2022/10/19 11:02:50;;;;;;;4.70;0.63;;;12.30;99.90;11.30;101169;;;;575274;249;24164;-82
2022/10/19 11:05:25;;;;;;;0.50;0.30;;;12.00;99.90;11.10;101166;;;;563410;249;24093;-82
2022/10/19 11:07:55;;;;;;;2.67;0.57;;;11.80;99.90;10.90;101162;;;;575385;249;24093;-81
2022/10/19 11:10:26;;;;;;;0.33;0.33;;;11.60;99.90;11.00;101163;;;;576511;249;24197;-84
2022/10/19 11:13:05;;;;;;;0.20;0.20;;;11.60;99.90;11.30;101168;;;;575755;249;24104;-82
2022/10/19 11:15:54;;;;;;;1.47;0.60;;;11.80;99.90;11.50;101157;;;;566960;249;24070;-81
2022/10/19 11:18:45;;;;;;;0.77;0.30;;;12.10;99.90;11.60;101159;;;;562868;249;24096;-82
2022/10/19 11:21:41;;;;;;;2.03;0.40;;;12.20;99.90;11.60;101171;;;;564620;249;24104;-81
2022/10/19 11:24:25;;;;;;;0.30;0.30;;;12.20;99.20;11.60;101179;;;;564385;249;24125;-82
2022/10/19 11:26:56;;;;;;;0.40;0.40;;;12.20;99.20;11.60;101178;;;;564331;249;24085;-81
2022/10/19 11:30:02;;;;;;;2.63;0.50;;;12.30;99.90;11.70;101170;;;;563797;249;24179;-81
2022/10/19 11:33:03;;;;;;;0.40;0.40;;;12.40;99.90;11.70;101180;;;;565525;249;24113;-81
2022/10/19 11:35:45;;;;;;;0.33;0.33;;;12.40;99.90;11.40;101173;;;;563687;249;24170;-80